Time;durP1;ratioP1;P1;durP2;ratioP2;P2;SDS_P1;SDS_P2;PMS_P1;PMS_P2;Temp;Humidity;BMP_temperature;BMP_pressure;BME280_temperature;BME280_humidity;BME280_pressure;Samples;Min_cycle;Max_cycle;Signal;HPM_P1;HPM_P2
2023/04/26 00:00:15;;;;;;;6.75;2.67;;;6.90;79.10;;;;;;5112490;28;20036;-72
2023/04/26 00:02:40;;;;;;;5.90;2.70;;;6.90;79.20;;;;;;5113412;28;20031;-72
2023/04/26 00:05:07;;;;;;;9.80;2.97;;;6.90;79.30;;;;;;5112372;28;20060;-72
2023/04/26 00:07:34;;;;;;;5.43;2.90;;;6.80;79.00;;;;;;5113070;28;20043;-72
2023/04/26 00:10:00;;;;;;;7.13;2.72;;;6.70;79.10;;;;;;5113270;28;20041;-72
2023/04/26 00:12:26;;;;;;;7.47;3.10;;;6.60;79.00;;;;;;5113261;28;20040;-72
2023/04/26 00:14:52;;;;;;;7.18;3.38;;;6.60;79.00;;;;;;5113277;28;20024;-72
2023/04/26 00:17:17;;;;;;;6.80;2.92;;;6.60;79.10;;;;;;5112257;28;20032;-72
2023/04/26 00:19:44;;;;;;;7.72;2.97;;;6.60;79.90;;;;;;5113350;28;20028;-72
2023/04/26 00:22:09;;;;;;;8.15;3.00;;;6.60;78.90;;;;;;5095373;28;20020;-72
2023/04/26 00:24:35;;;;;;;6.55;2.65;;;6.60;78.90;;;;;;5113187;28;20034;-72
2023/04/26 00:27:04;;;;;;;9.95;3.45;;;6.60;79.00;;;;;;5112376;28;20024;-72
2023/04/26 00:29:29;;;;;;;6.88;2.90;;;6.60;79.20;;;;;;5113151;28;20012;-72
2023/04/26 00:31:56;;;;;;;6.57;3.28;;;6.50;79.20;;;;;;5112200;28;20439;-72
2023/04/26 00:34:22;;;;;;;7.43;3.15;;;6.50;79.30;;;;;;5112068;28;20013;-72
2023/04/26 00:36:47;;;;;;;10.02;3.55;;;6.50;79.20;;;;;;5113236;28;20027;-72
2023/04/26 00:39:13;;;;;;;8.88;3.45;;;6.50;79.10;;;;;;5113049;28;20032;-72
2023/04/26 00:41:38;;;;;;;9.75;3.20;;;6.50;79.00;;;;;;5112113;28;20039;-72
2023/04/26 00:44:05;;;;;;;8.45;3.05;;;6.40;79.00;;;;;;5111984;28;20058;-72
2023/04/26 00:46:31;;;;;;;8.57;3.20;;;6.40;79.40;;;;;;5112999;28;20497;-72
2023/04/26 00:48:56;;;;;;;7.30;2.90;;;6.20;79.70;;;;;;5112933;28;20032;-72
2023/04/26 00:51:22;;;;;;;6.07;3.08;;;6.20;80.00;;;;;;5112797;28;20036;-72
2023/04/26 00:53:48;;;;;;;6.20;3.30;;;6.20;80.10;;;;;;5115547;28;20043;-72
2023/04/26 00:56:15;;;;;;;5.90;2.97;;;6.20;79.90;;;;;;5116619;28;20031;-72
2023/04/26 00:58:41;;;;;;;7.65;3.10;;;6.30;79.80;;;;;;5116592;28;20050;-72
2023/04/26 01:01:08;;;;;;;11.00;3.65;;;6.20;79.60;;;;;;5116576;28;20039;-73
2023/04/26 01:03:34;;;;;;;7.40;2.92;;;6.20;79.40;;;;;;5116531;28;20027;-72
2023/04/26 01:06:01;;;;;;;7.00;3.30;;;6.20;79.40;;;;;;5115689;28;20052;-72
2023/04/26 01:08:27;;;;;;;6.40;3.13;;;6.00;79.70;;;;;;5116251;28;20089;-72
2023/04/26 01:10:53;;;;;;;8.02;3.30;;;5.90;81.40;;;;;;5116300;28;20039;-72
2023/04/26 01:13:19;;;;;;;5.78;2.60;;;5.80;80.70;;;;;;5116325;28;20024;-72
2023/04/26 01:15:45;;;;;;;8.10;3.53;;;5.80;80.80;;;;;;5115347;28;20016;-72
2023/04/26 01:18:13;;;;;;;9.77;3.70;;;5.80;81.00;;;;;;5115312;28;20053;-72
2023/04/26 01:20:39;;;;;;;8.40;3.30;;;5.80;80.90;;;;;;5116219;28;20484;-72
2023/04/26 01:23:05;;;;;;;9.00;3.95;;;5.70;81.10;;;;;;5116191;28;20072;-72
2023/04/26 01:25:31;;;;;;;6.10;2.85;;;5.80;81.70;;;;;;5116148;28;20028;-72
2023/04/26 01:27:56;;;;;;;8.00;3.13;;;5.80;81.80;;;;;;5116075;28;20024;-72
2023/04/26 01:30:22;;;;;;;9.90;3.30;;;5.80;81.50;;;;;;5114958;28;20054;-72
2023/04/26 01:32:48;;;;;;;10.73;4.00;;;5.80;81.10;;;;;;5115950;28;20020;-72
2023/04/26 01:35:13;;;;;;;6.70;3.25;;;5.70;81.20;;;;;;5114797;28;20024;-72
2023/04/26 01:37:39;;;;;;;10.50;3.47;;;5.60;81.50;;;;;;5115867;28;20020;-72
2023/04/26 01:40:06;;;;;;;8.20;3.22;;;5.60;81.60;;;;;;5114879;28;20054;-72
2023/04/26 01:42:31;;;;;;;6.78;3.20;;;5.50;81.60;;;;;;5115799;28;20024;-72
2023/04/26 01:44:57;;;;;;;6.10;3.10;;;5.60;81.70;;;;;;5115725;28;20035;-72
2023/04/26 01:47:24;;;;;;;6.50;3.28;;;5.60;81.60;;;;;;5115658;28;20024;-72
2023/04/26 01:49:50;;;;;;;9.05;3.55;;;5.60;81.50;;;;;;5114637;28;20080;-72
2023/04/26 01:52:15;;;;;;;6.95;3.15;;;5.60;81.50;;;;;;5114708;28;20039;-72
2023/04/26 01:54:41;;;;;;;9.63;3.03;;;5.60;81.50;;;;;;5115543;28;20113;-72
2023/04/26 01:57:07;;;;;;;11.07;3.55;;;5.60;81.40;;;;;;5115467;28;20024;-72
2023/04/26 01:59:32;;;;;;;8.32;3.30;;;5.50;81.90;;;;;;5115446;28;20036;-72
2023/04/26 02:01:58;;;;;;;9.07;3.42;;;5.40;82.70;;;;;;5114498;28;20028;-72
2023/04/26 02:04:25;;;;;;;8.93;3.30;;;5.40;82.90;;;;;;5114550;28;20031;-72
2023/04/26 02:06:50;;;;;;;6.72;2.90;;;5.50;82.90;;;;;;5097577;28;20024;-72
2023/04/26 02:09:17;;;;;;;6.30;2.92;;;5.50;82.70;;;;;;5115136;28;20056;-72
2023/04/26 02:11:43;;;;;;;6.13;3.38;;;5.60;82.80;;;;;;5115154;28;20039;-72
2023/04/26 02:14:08;;;;;;;5.97;3.03;;;5.50;82.70;;;;;;5115197;28;20024;-72
2023/04/26 02:16:34;;;;;;;6.57;3.42;;;5.50;82.70;;;;;;5115105;28;20024;-72
2023/04/26 02:19:00;;;;;;;10.43;3.65;;;5.50;82.50;;;;;;5115027;28;20023;-72
2023/04/26 02:21:27;;;;;;;7.43;3.25;;;5.40;82.40;;;;;;5115014;28;20129;-72
2023/04/26 02:23:53;;;;;;;8.32;3.33;;;5.40;82.70;;;;;;5114977;28;20488;-72
2023/04/26 02:26:18;;;;;;;7.85;3.60;;;5.40;82.50;;;;;;5114936;28;20031;-72
2023/04/26 02:28:44;;;;;;;8.52;3.40;;;5.30;82.90;;;;;;5115007;28;20388;-72
2023/04/26 02:31:10;;;;;;;9.65;3.67;;;5.30;83.60;;;;;;5114758;28;20043;-72
2023/04/26 02:33:36;;;;;;;9.35;3.15;;;5.30;83.80;;;;;;5113794;28;20095;-72
2023/04/26 02:36:05;;;;;;;12.95;4.05;;;5.40;83.90;;;;;;5114735;28;20028;-72
2023/04/26 02:38:35;;;;;;;13.27;4.13;;;5.40;84.10;;;;;;5113645;28;20035;-72
2023/04/26 02:41:02;;;;;;;9.52;3.55;;;5.40;84.40;;;;;;5114587;28;20024;-72
2023/04/26 02:43:27;;;;;;;9.05;3.63;;;5.50;85.30;;;;;;5114599;28;20028;-72
2023/04/26 02:45:53;;;;;;;9.50;4.00;;;5.40;84.20;;;;;;5114576;28;20046;-72
2023/04/26 02:48:19;;;;;;;7.05;3.63;;;5.40;83.70;;;;;;5113634;28;20036;-72
2023/04/26 02:50:46;;;;;;;9.63;4.00;;;5.30;83.70;;;;;;5114438;28;20055;-72
2023/04/26 02:53:12;;;;;;;10.65;4.00;;;5.30;83.90;;;;;;5114416;28;20070;-72
2023/04/26 02:55:38;;;;;;;9.43;3.95;;;5.30;83.90;;;;;;5114295;28;20076;-73
2023/04/26 02:58:05;;;;;;;8.43;3.55;;;5.30;83.80;;;;;;5114280;28;20020;-72
2023/04/26 03:00:32;;;;;;;10.27;3.72;;;5.30;83.70;;;;;;5114381;28;20020;-73
2023/04/26 03:02:58;;;;;;;11.07;3.67;;;5.30;83.70;;;;;;5113186;28;20025;-72
2023/04/26 03:05:24;;;;;;;9.07;3.85;;;5.30;83.60;;;;;;5114194;28;20035;-73
2023/04/26 03:07:50;;;;;;;8.57;4.20;;;5.30;83.60;;;;;;5113969;28;20047;-73
2023/04/26 03:10:16;;;;;;;10.73;4.30;;;5.30;83.40;;;;;;5113984;28;20136;-73
2023/04/26 03:12:41;;;;;;;8.82;3.92;;;5.30;83.30;;;;;;5114036;28;20039;-73
2023/04/26 03:15:07;;;;;;;10.60;3.42;;;5.10;83.70;;;;;;5113109;28;20083;-72
2023/04/26 03:17:33;;;;;;;8.60;4.15;;;5.10;84.00;;;;;;5113981;28;20052;-73
2023/04/26 03:19:58;;;;;;;12.15;4.05;;;5.10;83.80;;;;;;5113013;28;20087;-72
2023/04/26 03:22:24;;;;;;;7.47;3.72;;;5.00;84.10;;;;;;5113916;28;20036;-73
2023/04/26 03:24:50;;;;;;;9.82;3.53;;;5.10;84.30;;;;;;5113000;28;20024;-73
2023/04/26 03:27:16;;;;;;;11.23;4.60;;;5.10;84.40;;;;;;5113833;28;20031;-73
2023/04/26 03:29:41;;;;;;;11.38;4.30;;;5.10;84.50;;;;;;5112659;28;20039;-73
2023/04/26 03:32:07;;;;;;;11.30;4.55;;;5.00;84.40;;;;;;5113718;28;20035;-72
2023/04/26 03:34:32;;;;;;;8.88;3.63;;;5.00;84.70;;;;;;5112609;28;20020;-72
2023/04/26 03:36:58;;;;;;;9.80;5.00;;;5.10;84.70;;;;;;5113665;28;20028;-72
2023/04/26 03:39:24;;;;;;;7.57;3.72;;;5.10;84.60;;;;;;5113601;28;20028;-73
2023/04/26 03:41:49;;;;;;;11.40;4.60;;;5.10;84.60;;;;;;5113609;28;20039;-72
2023/04/26 03:44:15;;;;;;;9.07;3.85;;;5.00;84.60;;;;;;5112606;28;20042;-72
2023/04/26 03:46:40;;;;;;;8.65;3.63;;;5.10;84.70;;;;;;5113567;28;20039;-72
2023/04/26 03:49:06;;;;;;;9.52;4.25;;;5.10;84.90;;;;;;5112575;28;20044;-72
2023/04/26 03:51:32;;;;;;;10.50;4.00;;;5.00;84.90;;;;;;5113391;28;20526;-73
2023/04/26 03:53:58;;;;;;;8.48;3.97;;;5.00;84.70;;;;;;5113438;28;20023;-72
2023/04/26 03:56:24;;;;;;;10.38;3.65;;;5.00;84.60;;;;;;5112557;28;20035;-72
2023/04/26 03:58:49;;;;;;;13.95;4.45;;;5.00;84.50;;;;;;5112483;28;20024;-72
2023/04/26 04:01:15;;;;;;;9.60;4.00;;;5.00;84.60;;;;;;5113409;28;20020;-73
2023/04/26 04:03:41;;;;;;;8.70;3.85;;;5.00;84.30;;;;;;5113390;28;20032;-72
2023/04/26 04:06:06;;;;;;;10.63;4.32;;;4.90;84.20;;;;;;5113359;28;20036;-72
2023/04/26 04:08:32;;;;;;;11.15;4.13;;;4.90;84.10;;;;;;5112249;28;20044;-73
2023/04/26 04:10:58;;;;;;;11.80;4.20;;;4.90;84.00;;;;;;5113235;28;20032;-72
2023/04/26 04:13:24;;;;;;;10.88;4.15;;;4.90;84.10;;;;;;5113261;28;20045;-72
2023/04/26 04:15:50;;;;;;;7.38;3.72;;;4.80;84.00;;;;;;5112228;28;20043;-72
2023/04/26 04:18:15;;;;;;;11.13;4.25;;;4.80;84.00;;;;;;5113234;28;20025;-72
2023/04/26 04:20:41;;;;;;;9.55;3.85;;;4.70;84.20;;;;;;5112155;28;20054;-72
2023/04/26 04:23:07;;;;;;;8.80;4.20;;;4.70;84.50;;;;;;5112284;28;20035;-72
2023/04/26 04:25:33;;;;;;;8.85;4.22;;;4.60;84.40;;;;;;5113168;28;20040;-72
2023/04/26 04:28:00;;;;;;;11.75;3.92;;;4.60;84.60;;;;;;5114762;28;20030;-72
2023/04/26 04:30:28;;;;;;;9.85;4.05;;;4.60;84.80;;;;;;5117087;28;20048;-72
2023/04/26 04:32:54;;;;;;;8.40;4.13;;;4.50;85.00;;;;;;5117187;28;20084;-72
2023/04/26 04:35:21;;;;;;;11.25;4.68;;;4.60;85.10;;;;;;5117009;28;20074;-72
2023/04/26 04:37:48;;;;;;;9.48;4.28;;;4.60;85.10;;;;;;5116047;28;20042;-72
2023/04/26 04:40:14;;;;;;;10.13;4.15;;;4.60;85.10;;;;;;5116951;28;20027;-72
2023/04/26 04:42:43;;;;;;;12.25;4.00;;;4.60;85.10;;;;;;5116951;28;20043;-72
2023/04/26 04:45:09;;;;;;;10.73;4.60;;;4.60;85.50;;;;;;5116044;28;20035;-72
2023/04/26 04:47:36;;;;;;;8.35;4.00;;;4.60;85.60;;;;;;5116914;28;20102;-72
2023/04/26 04:50:06;;;;;;;8.15;3.65;;;4.60;85.80;;;;;;5098990;28;20035;-73
2023/04/26 04:52:35;;;;;;;8.05;3.85;;;4.50;85.00;;;;;;5115834;28;20087;-73
2023/04/26 04:55:02;;;;;;;10.65;4.15;;;4.40;85.50;;;;;;5116733;28;20054;-72
2023/04/26 04:57:28;;;;;;;12.25;4.03;;;4.30;86.30;;;;;;5116806;28;20020;-73
2023/04/26 04:59:54;;;;;;;7.88;3.92;;;4.30;87.10;;;;;;5115587;28;20024;-72
2023/04/26 05:02:20;;;;;;;12.43;3.97;;;4.30;87.50;;;;;;5115534;28;20032;-73
2023/04/26 05:04:45;;;;;;;10.98;4.25;;;4.20;87.70;;;;;;5098689;28;20032;-72
2023/04/26 05:07:14;;;;;;;7.70;3.78;;;4.40;88.30;;;;;;5116358;28;20088;-72
2023/04/26 05:09:42;;;;;;;9.07;4.55;;;4.50;88.90;;;;;;5115254;28;20036;-72
2023/04/26 05:12:08;;;;;;;10.27;4.15;;;4.60;88.80;;;;;;5116338;28;20089;-73
2023/04/26 05:14:34;;;;;;;14.25;4.93;;;4.60;88.60;;;;;;5116470;28;20020;-74
2023/04/26 05:16:59;;;;;;;11.48;4.10;;;4.60;88.60;;;;;;5116347;28;20028;-72
2023/04/26 05:19:25;;;;;;;10.45;4.35;;;4.60;88.90;;;;;;5116180;28;20016;-72
2023/04/26 05:21:51;;;;;;;14.07;4.63;;;4.70;89.30;;;;;;5115440;28;20476;-72
2023/04/26 05:24:17;;;;;;;14.13;5.60;;;4.70;89.40;;;;;;5116021;28;20027;-72
2023/04/26 05:26:42;;;;;;;12.00;4.95;;;4.80;90.00;;;;;;5116074;28;20059;-72
2023/04/26 05:29:08;;;;;;;12.15;5.07;;;4.90;90.10;;;;;;5115932;28;20066;-72
2023/04/26 05:31:34;;;;;;;12.93;5.10;;;5.00;90.10;;;;;;5116049;28;20032;-72
2023/04/26 05:34:00;;;;;;;8.68;4.32;;;5.00;90.10;;;;;;5114979;28;20043;-72
2023/04/26 05:36:25;;;;;;;12.68;4.95;;;5.10;90.30;;;;;;5115880;28;20391;-72
2023/04/26 05:38:52;;;;;;;11.40;4.93;;;5.10;90.10;;;;;;5114008;28;20032;-72
2023/04/26 05:41:17;;;;;;;14.40;5.40;;;5.10;90.20;;;;;;5114564;28;20035;-72
2023/04/26 05:43:43;;;;;;;12.85;5.38;;;5.10;90.50;;;;;;5115740;28;20032;-72
2023/04/26 05:46:08;;;;;;;14.30;4.90;;;5.10;90.60;;;;;;5115643;28;20024;-72
2023/04/26 05:48:34;;;;;;;13.90;5.97;;;5.20;90.90;;;;;;5115699;28;20048;-72
2023/04/26 05:51:01;;;;;;;14.07;5.82;;;5.30;90.90;;;;;;5115584;28;20042;-72
2023/04/26 05:53:26;;;;;;;12.32;5.32;;;5.40;90.90;;;;;;5115536;28;20028;-72
2023/04/26 05:55:52;;;;;;;15.32;5.50;;;5.50;90.90;;;;;;5115507;28;20107;-72
2023/04/26 05:58:17;;;;;;;13.13;4.55;;;5.60;91.00;;;;;;5114371;28;20032;-72
2023/04/26 06:00:43;;;;;;;12.60;5.65;;;5.60;91.50;;;;;;5114589;28;20035;-72
2023/04/26 06:03:09;;;;;;;9.50;4.63;;;5.70;91.30;;;;;;5097447;28;20031;-72
2023/04/26 06:05:38;;;;;;;13.93;5.25;;;5.70;91.10;;;;;;5115376;28;20035;-72
2023/04/26 06:08:05;;;;;;;11.70;5.20;;;5.80;91.10;;;;;;5115099;28;20095;-72
2023/04/26 06:10:30;;;;;;;12.50;5.18;;;5.90;91.00;;;;;;5115172;28;20039;-72
2023/04/26 06:12:56;;;;;;;13.55;4.75;;;6.00;91.20;;;;;;5114194;28;20029;-72
2023/04/26 06:15:21;;;;;;;10.65;4.93;;;5.90;91.80;;;;;;5115117;28;20029;-72
2023/04/26 06:17:47;;;;;;;12.13;5.47;;;5.80;91.50;;;;;;5114128;28;20028;-72
2023/04/26 06:20:12;;;;;;;12.50;5.53;;;5.80;91.60;;;;;;5115008;28;20082;-72
2023/04/26 06:22:38;;;;;;;13.07;5.20;;;5.80;91.30;;;;;;5113973;28;20024;-72
2023/04/26 06:25:05;;;;;;;12.90;5.72;;;5.80;92.00;;;;;;5113959;28;20493;-72
2023/04/26 06:27:31;;;;;;;19.08;6.25;;;5.90;92.10;;;;;;5114859;28;20020;-74
2023/04/26 06:29:56;;;;;;;12.32;4.90;;;5.90;92.40;;;;;;5113808;28;20036;-72
2023/04/26 06:32:22;;;;;;;13.77;5.80;;;5.80;93.30;;;;;;5113825;28;20020;-72
2023/04/26 06:34:48;;;;;;;13.25;5.38;;;5.90;93.40;;;;;;5114697;28;20020;-72
2023/04/26 06:37:13;;;;;;;16.42;6.25;;;6.00;94.10;;;;;;5113774;28;20032;-72
2023/04/26 06:39:39;;;;;;;11.57;5.47;;;6.00;93.70;;;;;;5113728;28;20032;-72
2023/04/26 06:42:05;;;;;;;14.98;6.47;;;6.10;93.10;;;;;;5114591;28;20077;-73
2023/04/26 06:44:31;;;;;;;13.65;5.53;;;6.30;92.70;;;;;;5113660;28;20028;-72
2023/04/26 06:46:57;;;;;;;14.38;6.30;;;6.40;92.90;;;;;;5114200;28;20031;-72
2023/04/26 06:49:24;;;;;;;9.48;5.10;;;6.50;92.40;;;;;;5114378;28;20590;-73
2023/04/26 06:51:51;;;;;;;12.80;5.32;;;6.60;92.30;;;;;;5114052;28;20050;-73
2023/04/26 06:54:17;;;;;;;15.05;5.72;;;6.70;92.20;;;;;;5114341;28;20101;-73
2023/04/26 06:56:49;;;;;;;10.57;4.72;;;6.80;92.00;;;;;;5114369;28;20027;-73
2023/04/26 06:59:35;;;;;;;11.73;5.05;;;6.90;91.90;;;;;;5097063;28;20031;-73
2023/04/26 07:02:01;;;;;;;13.73;5.53;;;7.00;91.80;;;;;;5113685;28;20037;-74
2023/04/26 07:04:27;;;;;;;10.10;4.35;;;7.10;92.20;;;;;;5113297;28;20055;-73
2023/04/26 07:06:52;;;;;;;9.27;4.07;;;7.20;91.60;;;;;;5114199;28;20036;-73
2023/04/26 07:09:18;;;;;;;6.20;3.45;;;7.30;91.80;;;;;;5113101;28;20048;-73
2023/04/26 07:11:50;;;;;;;10.50;3.88;;;7.40;91.10;;;;;;5096069;28;20046;-73
2023/04/26 07:14:16;;;;;;;10.10;4.57;;;7.40;90.60;;;;;;5113214;28;20035;-73
2023/04/26 07:16:41;;;;;;;10.15;4.25;;;7.50;90.50;;;;;;5113020;28;20031;-73
2023/04/26 07:19:09;;;;;;;13.00;4.22;;;7.50;90.50;;;;;;5096040;28;20048;-73
2023/04/26 07:21:35;;;;;;;12.20;4.38;;;7.50;90.50;;;;;;5113978;28;20028;-73
2023/04/26 07:24:01;;;;;;;9.55;3.70;;;7.50;90.40;;;;;;5113050;28;20028;-73
2023/04/26 07:26:27;;;;;;;10.48;4.53;;;7.50;89.80;;;;;;5113753;28;20042;-74
2023/04/26 07:28:53;;;;;;;11.20;4.50;;;7.60;89.90;;;;;;5112208;28;20066;-73
2023/04/26 07:31:19;;;;;;;10.20;4.40;;;7.60;90.10;;;;;;5113738;28;20035;-73
2023/04/26 07:33:45;;;;;;;11.40;4.47;;;7.70;90.10;;;;;;5113685;28;20020;-73
2023/04/26 07:36:11;;;;;;;8.70;4.45;;;7.70;90.30;;;;;;5112906;28;20094;-73
2023/04/26 07:38:36;;;;;;;8.15;4.10;;;7.80;90.20;;;;;;5113681;28;20032;-73
2023/04/26 07:41:02;;;;;;;10.75;4.68;;;7.80;90.00;;;;;;5112622;28;20103;-73
2023/04/26 07:43:29;;;;;;;7.63;4.43;;;7.90;89.70;;;;;;5112673;28;20052;-73
2023/04/26 07:46:01;;;;;;;10.98;4.50;;;7.90;89.90;;;;;;5112515;28;20073;-73
2023/04/26 07:48:27;;;;;;;10.85;3.30;;;8.00;89.80;;;;;;5113727;28;20031;-73
2023/04/26 07:50:54;;;;;;;8.15;2.88;;;8.10;89.10;;;;;;5113442;28;20028;-73
2023/04/26 07:53:20;;;;;;;10.68;3.75;;;8.20;88.70;;;;;;5113502;28;20022;-73
2023/04/26 07:55:45;;;;;;;4.53;2.42;;;8.10;86.90;;;;;;5113490;28;20085;-73
2023/04/26 07:58:13;;;;;;;6.63;2.63;;;8.20;85.70;;;;;;5112596;28;20055;-73
2023/04/26 08:00:41;;;;;;;5.90;2.78;;;8.10;85.20;;;;;;5095953;28;20025;-74
2023/04/26 08:03:07;;;;;;;4.63;2.03;;;8.10;85.30;;;;;;5111806;28;20545;-74
2023/04/26 08:05:33;;;;;;;3.60;1.70;;;8.20;83.70;;;;;;5113389;28;20032;-74
2023/04/26 08:08:02;;;;;;;8.70;2.55;;;8.20;83.10;;;;;;5112142;28;20046;-74
2023/04/26 08:10:27;;;;;;;3.20;1.92;;;8.20;83.50;;;;;;5095753;28;20039;-74
2023/04/26 08:12:55;;;;;;;42.13;17.73;;;8.20;84.30;;;;;;5112383;28;20028;-73
2023/04/26 08:15:20;;;;;;;13.75;5.18;;;8.30;84.10;;;;;;5113263;28;20019;-73
2023/04/26 08:17:47;;;;;;;5.93;2.47;;;8.30;83.40;;;;;;5113233;28;20528;-73
2023/04/26 08:20:13;;;;;;;4.28;1.90;;;8.40;83.20;;;;;;5095513;28;20025;-73
2023/04/26 08:22:38;;;;;;;5.30;1.83;;;8.40;83.10;;;;;;5112437;28;20054;-73
2023/04/26 08:25:05;;;;;;;4.80;1.67;;;8.40;81.80;;;;;;5113198;28;20053;-73
2023/04/26 08:27:33;;;;;;;5.53;2.22;;;8.40;80.90;;;;;;5113191;28;20024;-73
2023/04/26 08:29:59;;;;;;;5.93;1.90;;;8.50;82.10;;;;;;5112166;28;20024;-73
2023/04/26 08:32:37;;;;;;;3.92;2.03;;;8.50;80.20;;;;;;5113154;28;20051;-74
2023/04/26 08:41:53;;;;;;;6.40;1.92;;;8.70;81.50;;;;;;5012284;28;20133;-75
2023/04/26 08:44:22;;;;;;;4.60;2.00;;;8.80;80.80;;;;;;5113096;28;20021;-75
2023/04/26 08:47:05;;;;;;;2.33;1.50;;;9.00;80.10;;;;;;5113211;28;20016;-75
2023/04/26 08:49:49;;;;;;;3.65;1.80;;;9.10;79.80;;;;;;5113084;28;20028;-75
2023/04/26 08:52:15;;;;;;;3.83;1.77;;;9.30;80.10;;;;;;5112047;28;20020;-75
2023/04/26 08:54:43;;;;;;;26.38;8.93;;;9.40;79.70;;;;;;5112974;28;20046;-75
2023/04/26 08:57:09;;;;;;;8.80;3.17;;;9.50;78.90;;;;;;5112921;28;20016;-75
2023/04/26 08:59:36;;;;;;;6.63;2.10;;;9.50;78.80;;;;;;5111959;28;20020;-76
2023/04/26 09:02:04;;;;;;;6.40;2.85;;;9.50;78.80;;;;;;5113016;28;20024;-75
2023/04/26 09:04:30;;;;;;;7.75;2.15;;;9.40;75.90;;;;;;5111824;28;20020;-75
2023/04/26 09:07:00;;;;;;;3.30;1.90;;;9.20;75.50;;;;;;5111894;28;20036;-75
2023/04/26 09:09:37;;;;;;;3.08;1.75;;;9.10;75.90;;;;;;5111571;28;20040;-75
2023/04/26 09:12:04;;;;;;;5.15;2.00;;;9.10;76.30;;;;;;5112917;28;20054;-75
2023/04/26 09:14:30;;;;;;;5.38;1.80;;;9.10;75.80;;;;;;5114810;28;20103;-75
2023/04/26 09:16:58;;;;;;;3.63;1.73;;;9.10;76.80;;;;;;5116425;28;20016;-75
2023/04/26 09:19:39;;;;;;;6.53;2.00;;;9.20;76.60;;;;;;5116369;28;20078;-75
2023/04/26 09:25:29;;;;;;;4.72;1.88;;;9.30;75.40;;;;;;5116439;28;20043;-75
2023/04/26 09:28:02;;;;;;;3.83;1.67;;;9.40;76.00;;;;;;5116301;28;20113;-75
2023/04/26 09:30:29;;;;;;;5.55;1.92;;;9.40;76.00;;;;;;5115345;28;20032;-72
2023/04/26 09:33:02;;;;;;;5.30;2.03;;;9.50;76.40;;;;;;5116088;28;20020;-74
2023/04/26 09:35:33;;;;;;;3.22;1.80;;;9.60;77.00;;;;;;5116115;28;20023;-74
2023/04/26 09:38:05;;;;;;;4.00;1.80;;;9.70;76.60;;;;;;5115052;28;20020;-74
2023/04/26 09:40:49;;;;;;;4.15;1.65;;;9.70;74.60;;;;;;5115961;28;20079;-74
2023/04/26 09:43:17;;;;;;;2.40;1.20;;;9.80;75.20;;;;;;5116057;28;20020;-74
2023/04/26 09:45:53;;;;;;;5.10;1.45;;;9.90;74.20;;;;;;5115824;28;20054;-74
2023/04/26 09:48:24;;;;;;;3.83;1.67;;;9.90;70.50;;;;;;5116015;28;20085;-75
2023/04/26 09:50:53;;;;;;;4.40;1.80;;;10.00;71.90;;;;;;5115768;28;20020;-75
2023/04/26 09:53:38;;;;;;;4.55;2.05;;;10.10;72.10;;;;;;5115657;28;20035;-75
2023/04/26 09:56:15;;;;;;;3.75;1.83;;;10.20;72.00;;;;;;5115622;28;20058;-75
2023/04/26 09:58:46;;;;;;;3.30;1.63;;;10.20;71.30;;;;;;5114467;28;20020;-75
2023/04/26 10:01:17;;;;;;;1.90;1.50;;;10.20;70.50;;;;;;5114495;28;20028;-75
2023/04/26 10:03:43;;;;;;;4.45;1.70;;;10.10;71.20;;;;;;5115302;28;20487;-74
2023/04/26 10:06:11;;;;;;;4.90;1.98;;;10.10;70.70;;;;;;5115379;28;20034;-74
2023/04/26 10:08:36;;;;;;;5.63;2.67;;;10.00;71.20;;;;;;5115189;28;20047;-74
2023/04/26 10:11:10;;;;;;;5.00;1.92;;;10.00;72.10;;;;;;5115283;28;20096;-74
2023/04/26 10:13:36;;;;;;;6.75;3.17;;;10.10;72.60;;;;;;5115345;28;20020;-74
2023/04/26 10:16:03;;;;;;;3.13;1.77;;;10.00;73.00;;;;;;5115217;28;20020;-74
2023/04/26 10:18:30;;;;;;;4.43;2.22;;;10.00;72.60;;;;;;5115112;28;20025;-74
2023/04/26 10:21:16;;;;;;;7.15;1.95;;;10.00;72.90;;;;;;5115121;28;20072;-74
2023/04/26 10:23:42;;;;;;;5.07;2.13;;;10.00;73.40;;;;;;5115010;28;20028;-74
2023/04/26 10:26:50;;;;;;;3.88;2.00;;;10.00;73.40;;;;;;5114374;28;20028;-74
2023/04/26 10:29:16;;;;;;;4.55;1.90;;;10.00;73.50;;;;;;5114981;28;20024;-74
2023/04/26 10:32:00;;;;;;;7.00;2.10;;;10.00;73.50;;;;;;5114843;28;20032;-74
2023/04/26 10:34:26;;;;;;;3.72;1.65;;;9.90;74.30;;;;;;5113691;28;20031;-74
2023/04/26 10:37:13;;;;;;;5.60;1.77;;;9.90;73.60;;;;;;5114552;28;20020;-74
2023/04/26 10:39:42;;;;;;;3.70;1.90;;;10.00;72.50;;;;;;5114764;28;20384;-74
2023/04/26 10:42:26;;;;;;;6.65;1.83;;;9.90;73.20;;;;;;5114714;28;20050;-74
2023/04/26 10:44:57;;;;;;;5.63;2.15;;;9.80;72.80;;;;;;5113481;28;20032;-74
2023/04/26 10:47:41;;;;;;;3.60;1.50;;;9.80;72.70;;;;;;5113555;28;20035;-74
2023/04/26 10:50:10;;;;;;;7.07;1.90;;;9.80;72.60;;;;;;5114355;28;20036;-74
2023/04/26 10:52:58;;;;;;;5.35;1.80;;;9.70;73.20;;;;;;5114499;28;20024;-74
2023/04/26 10:55:42;;;;;;;4.57;1.58;;;9.80;72.90;;;;;;5114314;28;20020;-74
2023/04/26 10:58:31;;;;;;;5.72;1.90;;;9.70;72.00;;;;;;5114387;28;20028;-74
2023/04/26 11:01:16;;;;;;;2.65;1.75;;;9.70;70.00;;;;;;5114364;28;20023;-74
2023/04/26 11:04:00;;;;;;;3.25;1.63;;;9.70;72.60;;;;;;5114289;28;20035;-74
2023/04/26 11:06:27;;;;;;;6.40;2.00;;;9.80;72.50;;;;;;5114278;28;20045;-74
2023/04/26 11:08:53;;;;;;;7.60;2.42;;;9.90;72.90;;;;;;5113969;28;20440;-74
2023/04/26 11:11:25;;;;;;;6.30;1.95;;;9.90;72.60;;;;;;5114247;28;20039;-74
2023/04/26 11:13:50;;;;;;;5.28;2.10;;;9.90;71.50;;;;;;5114093;28;20373;-74
2023/04/26 11:16:16;;;;;;;4.68;1.98;;;10.00;71.60;;;;;;5113129;28;20054;-74
2023/04/26 11:18:43;;;;;;;4.97;2.20;;;10.10;69.40;;;;;;5114014;28;20047;-74
2023/04/26 11:21:10;;;;;;;3.42;2.03;;;10.20;70.20;;;;;;5112793;28;20028;-74
2023/04/26 11:23:35;;;;;;;5.88;2.10;;;10.10;70.00;;;;;;5113868;28;20035;-74
2023/04/26 11:26:07;;;;;;;3.78;2.20;;;10.20;70.10;;;;;;5113052;28;20021;-74
2023/04/26 11:28:37;;;;;;;6.32;2.35;;;10.40;71.20;;;;;;5112779;28;20034;-74
2023/04/26 11:31:05;;;;;;;4.93;1.90;;;10.40;68.60;;;;;;5113950;28;20468;-74
2023/04/26 11:33:32;;;;;;;4.38;2.10;;;10.40;68.10;;;;;;5113654;28;20028;-74
2023/04/26 11:35:58;;;;;;;5.93;2.05;;;10.50;67.00;;;;;;5113861;28;20024;-74
2023/04/26 11:38:26;;;;;;;5.63;2.47;;;10.50;67.80;;;;;;5112711;28;20024;-74
2023/04/26 11:40:56;;;;;;;3.40;1.90;;;10.50;66.90;;;;;;5113660;28;20040;-74
2023/04/26 11:43:31;;;;;;;2.55;1.45;;;10.50;66.50;;;;;;5113627;28;20027;-74
2023/04/26 11:46:00;;;;;;;4.30;1.60;;;10.40;64.00;;;;;;5113524;28;20059;-74
2023/04/26 11:48:28;;;;;;;3.63;1.60;;;10.40;66.10;;;;;;5113591;28;20031;-74
2023/04/26 11:50:55;;;;;;;5.88;1.50;;;10.60;66.90;;;;;;5113423;28;20031;-74
2023/04/26 11:53:21;;;;;;;4.68;2.10;;;10.70;66.80;;;;;;5113500;28;20036;-74
2023/04/26 11:55:47;;;;;;;4.78;1.60;;;10.80;66.90;;;;;;5113407;28;20016;-74
2023/04/26 11:58:14;;;;;;;3.35;1.80;;;10.90;66.90;;;;;;5113447;28;20050;-74
2023/04/26 12:01:00;;;;;;;4.47;2.08;;;11.00;66.90;;;;;;5113443;28;20028;-74
2023/04/26 12:03:36;;;;;;;4.82;1.77;;;11.20;64.80;;;;;;5113464;28;20028;-74
2023/04/26 12:06:03;;;;;;;6.22;2.20;;;11.20;64.50;;;;;;5113415;28;20039;-74
2023/04/26 12:08:29;;;;;;;5.10;1.70;;;11.30;64.70;;;;;;5113176;28;20044;-74
2023/04/26 12:11:01;;;;;;;3.15;1.70;;;11.30;64.90;;;;;;5113398;28;20032;-74
2023/04/26 12:13:29;;;;;;;3.63;2.20;;;11.40;64.50;;;;;;5113366;28;20048;-74
2023/04/26 12:15:55;;;;;;;6.35;1.85;;;11.50;65.20;;;;;;5113278;28;20017;-74
2023/04/26 12:18:22;;;;;;;3.30;1.70;;;11.60;65.70;;;;;;5095447;28;20031;-74
2023/04/26 12:20:48;;;;;;;5.22;2.75;;;11.70;66.10;;;;;;5113217;28;20468;-74
2023/04/26 12:23:16;;;;;;;6.05;2.13;;;11.70;65.10;;;;;;5113271;28;20084;-74
2023/04/26 12:25:58;;;;;;;4.95;1.90;;;11.70;65.10;;;;;;5113200;28;20040;-74
2023/04/26 12:28:24;;;;;;;5.25;1.95;;;11.70;64.90;;;;;;5113207;28;20024;-74
2023/04/26 12:30:50;;;;;;;4.45;1.83;;;11.60;65.40;;;;;;5112049;28;20439;-74
2023/04/26 12:33:18;;;;;;;3.55;1.95;;;11.60;65.20;;;;;;5113020;28;20025;-74
2023/04/26 12:35:45;;;;;;;3.58;1.98;;;11.60;65.30;;;;;;5113205;28;20016;-74
2023/04/26 12:38:11;;;;;;;6.22;2.80;;;11.50;65.60;;;;;;5095239;28;20024;-74
2023/04/26 12:40:37;;;;;;;8.18;3.22;;;11.50;66.00;;;;;;5113050;28;20017;-74
2023/04/26 12:43:03;;;;;;;3.80;2.13;;;11.40;65.70;;;;;;5112205;28;20078;-74
2023/04/26 12:45:29;;;;;;;6.65;2.17;;;11.40;65.80;;;;;;5113042;28;20023;-74
2023/04/26 12:47:55;;;;;;;4.15;1.88;;;11.40;65.60;;;;;;5113081;28;20036;-74
2023/04/26 12:50:21;;;;;;;4.78;2.20;;;11.40;65.90;;;;;;5116565;28;20062;-74
2023/04/26 12:52:47;;;;;;;5.47;2.33;;;11.40;66.30;;;;;;5116707;28;20024;-74
2023/04/26 12:55:14;;;;;;;6.80;2.58;;;11.50;67.40;;;;;;5116769;28;20016;-74
2023/04/26 12:57:42;;;;;;;5.75;2.40;;;11.50;66.60;;;;;;5116716;28;20024;-74
2023/04/26 13:00:16;;;;;;;8.38;2.50;;;11.50;66.90;;;;;;5116675;28;20024;-74
2023/04/26 13:02:42;;;;;;;6.65;2.22;;;11.50;67.40;;;;;;5116622;28;20024;-74
2023/04/26 13:05:09;;;;;;;4.25;2.45;;;11.50;67.30;;;;;;5116652;28;20020;-74